Hunting Valley, Ohio
Current Conditions -  °F | °C
As of 4:45 PM on Thursday 23 Oct 2014 (Local Time) from KCGF Reporting Station
Broken Clouds Broken Clouds  
Wind Chill: 55°   Ceiling: 20000
Heat Index: 55°   Visibility: 20mi
Dew Point: 46°   Wind: 14mph
Humidity: 72%   Direction: 320°NW
Pressure: 30.14"   Gusts: NA
Location:  41.4475°N, 81.4018°W
Report Text: KCGF 232045Z 32012KT 20SM SCT025 BKN200 13/08 A3014
Loading
Personal Weather Stations






























Interactive Weather Map
Tropical Storm Tracking
New forecast layout! Learn more

10-Day Weather Forecast

Advertisements
Track Severe Weather on mobile